Villa San Agustin, Puerto Rico
Current Conditions -  °F | °C
As of 9:56 AM on Tuesday 27 Jan 2015 (Local Time) from TJSJ Reporting Station
Scattered Clouds Scattered Clouds  
Wind Chill: 28°   Ceiling: Unl
Heat Index: 31°   Visibility: 10mi
Dew Point: 22°   Wind: 10mph
Humidity: 69%   Direction: 140°SE
Pressure: 30.02"   Gusts: 18mph
Location:  18.1781°N, 66.1167°W
Report Text: TJSJ 271356Z 14009G16KT 10SM FEW027 SCT060 28/22 A3002 RMK AO2 SLP165 T02830222
Loading
Personal Weather Stations






























Interactive Weather Map New forecast layout! Learn more

10-Day Weather Forecast

Advertisements
Track Severe Weather on mobile